SANE/SDE METAR and TAF weather

Enter ICAO airport designator
Station Type Date Time Source
SANE METAR 2020/01/20 23:30 UTC NOAA

SANE 202330Z 11007KT 7000 -TSRA SCT025 FEW050CB BKN075 30/25 Q1002


Station Type Date Time Source
SANE Decoded METAR 2020/01/20 23:30 UTC NOAA

Santiago Del Estero Aero., Argentina (SANE) 27-46S 064-18W 199M
Jan 20, 2020 - 06:30 PM EST / 2020.01.20 2330 UTC
Wind: from the ESE (110 degrees) at 8 MPH (7 KT):0
Visibility: 4 mile(s):0
Sky conditions: mostly cloudy
Weather: light rain with thunder; Cumulonimbus clouds observed
Temperature: 86 F (30 C)
Heat index: 96.8 F (36.0 C):1
Dew Point: 77 F (25 C)
Relative Humidity: 74%
Pressure (altimeter): 29.59 in. Hg (1002 hPa)
ob: SANE 202330Z 11007KT 7000 -TSRA SCT025 FEW050CB BKN075 30/25 Q1002
cycle: 23

Station Type Date Time Source
SANE TAF 2020/01/17 18:03 UTC NOAA

TAF TAF SANE 171700Z 1718/1818 05015KT 9999 SCT030 BKN060 TX33/1819Z TN23/1810Z
BECMG 1803/1806 36005KT
BECMG 1812/1815 02010KT 9999 SCT040

Example: see airport list